Time;durP1;ratioP1;P1;durP2;ratioP2;P2;SDS_P1;SDS_P2;PMS_P1;PMS_P2;Temp;Humidity;BMP_temperature;BMP_pressure;BME280_temperature;BME280_humidity;BME280_pressure;Samples;Min_cycle;Max_cycle;Signal;HPM_P1;HPM_P2
2021/05/15 00:01:53;;;;;;;9.65;6.00;;;;;;;15.38;65.48;98516.91;1767895;80;21612;-41
2021/05/15 00:04:20;;;;;;;11.60;7.65;;;;;;;15.43;65.79;98510.40;1768811;80;20976;-41
2021/05/15 00:06:48;;;;;;;8.05;6.92;;;;;;;15.46;65.55;98508.20;1761434;80;21062;-41
2021/05/15 00:09:16;;;;;;;13.53;6.75;;;;;;;15.47;65.37;98510.34;1755510;80;21539;-41
2021/05/15 00:11:42;;;;;;;9.18;6.62;;;;;;;15.45;65.35;98516.20;1779527;80;21883;-41
2021/05/15 00:14:09;;;;;;;9.13;6.37;;;;;;;15.43;65.34;98509.63;1768812;80;21006;-41
2021/05/15 00:16:36;;;;;;;9.50;6.58;;;;;;;15.40;65.43;98515.89;1754231;80;21002;-41
2021/05/15 00:19:04;;;;;;;7.78;6.28;;;;;;;15.36;65.62;98511.08;1766181;80;21384;-41
2021/05/15 00:21:30;;;;;;;8.50;6.90;;;;;;;15.33;65.81;98508.59;1762226;80;20967;-41
2021/05/15 00:23:57;;;;;;;11.70;6.87;;;;;;;15.31;65.87;98514.27;1764725;80;21677;-41
2021/05/15 00:26:25;;;;;;;9.38;7.17;;;;;;;15.36;66.04;98516.53;1772927;80;21046;-41
2021/05/15 00:28:53;;;;;;;10.28;6.58;;;;;;;15.40;65.95;98515.89;1761990;80;21581;-41
2021/05/15 00:31:20;;;;;;;8.15;6.67;;;;;;;15.42;65.97;98513.53;1763399;80;21087;-41
2021/05/15 00:33:47;;;;;;;8.13;6.33;;;;;;;15.42;65.88;98515.67;1755849;80;21129;-41
2021/05/15 00:36:13;;;;;;;9.28;7.05;;;;;;;15.41;65.91;98520.95;1759964;80;21663;-41
2021/05/15 00:38:40;;;;;;;12.88;7.83;;;;;;;15.42;66.03;98520.36;1763233;79;20920;-41
2021/05/15 00:41:07;;;;;;;9.70;7.50;;;;;;;15.39;66.02;98525.30;1753573;80;21133;-41
2021/05/15 00:43:34;;;;;;;11.33;7.55;;;;;;;15.34;66.27;98513.46;1758844;80;21138;-41
2021/05/15 00:46:01;;;;;;;10.40;8.03;;;;;;;15.30;66.48;98521.68;1762016;80;21534;-41
2021/05/15 00:48:28;;;;;;;11.55;8.55;;;;;;;15.31;66.51;98515.63;1760606;80;21131;-41
2021/05/15 00:50:55;;;;;;;10.50;8.60;;;;;;;15.18;66.62;98513.47;1757429;80;21044;-41
2021/05/15 00:53:21;;;;;;;12.18;9.00;;;;;;;15.07;66.94;98515.55;1758244;80;21601;-41
2021/05/15 00:55:48;;;;;;;11.45;8.68;;;;;;;15.00;67.11;98514.88;1758547;80;21577;-41
2021/05/15 00:58:14;;;;;;;9.68;7.58;;;;;;;14.94;67.30;98512.41;1755638;80;22026;-41
2021/05/15 01:00:41;;;;;;;10.65;7.80;;;;;;;14.97;67.37;98515.68;1751857;80;21758;-41
2021/05/15 01:03:07;;;;;;;13.03;7.92;;;;;;;15.03;67.28;98520.88;1749985;80;21090;-41
2021/05/15 01:05:34;;;;;;;12.63;8.08;;;;;;;15.05;67.24;98511.11;1757030;80;21011;-41
2021/05/15 01:08:02;;;;;;;15.40;8.65;;;;;;;15.07;67.26;98508.73;1757920;80;21019;-41
2021/05/15 01:10:29;;;;;;;9.35;7.78;;;;;;;15.11;67.16;98512.19;1756963;80;21091;-41
2021/05/15 01:12:57;;;;;;;13.03;8.40;;;;;;;15.13;67.04;98516.66;1756192;80;21170;-41
2021/05/15 01:15:27;;;;;;;10.08;8.20;;;;;;;15.13;66.89;98507.09;1757391;80;21039;-41
2021/05/15 01:17:56;;;;;;;13.28;7.60;;;;;;;15.09;66.92;98511.84;1753701;80;21611;-41
2021/05/15 01:20:26;;;;;;;11.03;6.95;;;;;;;15.03;66.98;98517.56;1757289;80;21055;-41
2021/05/15 01:22:54;;;;;;;;;;;;;;;15.01;66.96;98510.36;1758583;80;21024;-41
2021/05/15 01:25:21;;;;;;;12.50;7.00;;;;;;;15.05;66.77;98507.61;1758021;80;21078;-41
2021/05/15 01:27:48;;;;;;;7.62;5.85;;;;;;;14.98;66.95;98506.31;1756020;80;21050;-41
2021/05/15 01:30:17;;;;;;;9.05;6.03;;;;;;;14.98;66.79;98507.69;1752467;80;21067;-41
2021/05/15 01:32:45;;;;;;;10.68;6.40;;;;;;;14.95;66.70;98512.02;1755364;80;21589;-41
2021/05/15 01:35:15;;;;;;;8.78;6.50;;;;;;;14.89;66.71;98512.28;1757310;80;21048;-41
2021/05/15 01:37:42;;;;;;;8.73;5.58;;;;;;;14.81;66.82;98510.83;1762103;80;21066;-41
2021/05/15 01:40:10;;;;;;;8.13;5.80;;;;;;;14.77;66.85;98511.44;1759670;80;21091;-41
2021/05/15 01:42:38;;;;;;;15.60;5.90;;;;;;;14.73;66.89;98510.70;1756808;80;22964;-41
2021/05/15 01:45:06;;;;;;;9.00;5.70;;;;;;;14.70;66.82;98509.58;1759457;80;21011;-41
2021/05/15 01:47:36;;;;;;;6.60;5.50;;;;;;;14.74;66.67;98517.72;1756053;80;21941;-41
2021/05/15 01:50:05;;;;;;;8.33;5.95;;;;;;;14.74;66.67;98517.72;1757156;80;21089;-41
2021/05/15 01:52:32;;;;;;;11.20;6.00;;;;;;;14.69;66.73;98519.52;1755364;80;21597;-41
2021/05/15 01:55:03;;;;;;;8.50;6.75;;;;;;;14.63;66.85;98522.51;1755225;80;21290;-41
2021/05/15 01:57:29;;;;;;;6.57;5.80;;;;;;;14.59;66.90;98518.46;1757867;80;21018;-40
2021/05/15 01:59:56;;;;;;;8.00;6.37;;;;;;;14.56;66.77;98522.60;1688932;83;21082;-41
2021/05/15 02:02:24;;;;;;;8.58;5.95;;;;;;;14.50;66.91;98528.30;1765448;80;21111;-40
2021/05/15 02:04:51;;;;;;;7.00;5.70;;;;;;;14.44;67.04;98531.28;1763045;80;21054;-40
2021/05/15 02:07:20;;;;;;;7.90;5.20;;;;;;;14.42;67.10;98532.30;1757791;80;21081;-41
2021/05/15 02:09:48;;;;;;;10.25;5.50;;;;;;;14.43;67.07;98520.95;1750902;80;21568;-40
2021/05/15 02:12:15;;;;;;;10.15;5.33;;;;;;;14.43;67.17;98533.23;1758466;80;20976;-41
2021/05/15 02:14:42;;;;;;;6.12;5.40;;;;;;;14.41;67.13;98528.79;1755139;80;21136;-41
2021/05/15 02:17:09;;;;;;;8.33;5.50;;;;;;;14.40;67.16;98528.59;1755150;80;21008;-41
2021/05/15 02:19:37;;;;;;;6.53;5.17;;;;;;;14.38;67.14;98530.20;1754050;80;21615;-41
2021/05/15 02:22:04;;;;;;;8.93;5.60;;;;;;;14.32;67.31;98534.69;1754565;80;21118;-41
2021/05/15 02:24:31;;;;;;;9.18;5.15;;;;;;;14.26;67.55;98536.88;1717291;82;21399;-41
2021/05/15 02:26:58;;;;;;;8.40;4.12;;;;;;;14.18;67.72;98537.55;1759797;80;21318;-41
2021/05/15 02:29:24;;;;;;;9.55;4.58;;;;;;;14.20;67.58;98541.99;1758275;80;20984;-41
2021/05/15 02:31:51;;;;;;;5.42;4.33;;;;;;;14.22;67.50;98538.28;1754957;80;21114;-41
2021/05/15 02:34:18;;;;;;;5.80;4.60;;;;;;;14.23;67.60;98543.16;1760971;80;21074;-41
2021/05/15 02:36:46;;;;;;;6.95;4.08;;;;;;;14.25;67.65;98543.51;1763741;80;21600;-41
2021/05/15 02:39:13;;;;;;;7.17;4.35;;;;;;;14.26;67.56;98538.25;1762182;80;21228;-41
2021/05/15 02:41:40;;;;;;;8.53;4.87;;;;;;;14.23;67.60;98541.79;1763532;80;21007;-42
2021/05/15 02:44:07;;;;;;;4.87;4.00;;;;;;;14.20;67.75;98549.39;1763652;80;21102;-41
2021/05/15 02:46:34;;;;;;;5.05;4.17;;;;;;;14.21;67.86;98540.05;1766103;80;21572;-41
2021/05/15 02:49:01;;;;;;;6.87;3.85;;;;;;;14.33;67.82;98549.07;1763976;80;21584;-41
2021/05/15 02:51:27;;;;;;;5.40;3.65;;;;;;;14.12;67.66;98499.63;1761621;79;21652;-41
2021/05/15 02:53:55;;;;;;;5.42;3.87;;;;;;;14.47;67.69;98546.86;1763999;80;21134;-41
2021/05/15 02:56:22;;;;;;;4.72;4.15;;;;;;;14.50;67.78;98551.48;1763121;80;21034;-41
2021/05/15 02:58:49;;;;;;;7.25;4.28;;;;;;;14.50;67.86;98554.22;1762019;80;21050;-41
2021/05/15 03:01:18;;;;;;;6.70;4.10;;;;;;;14.49;67.97;98558.89;1772932;80;21056;-41
2021/05/15 03:03:46;;;;;;;5.40;3.85;;;;;;;14.47;68.08;98557.17;1766942;80;21092;-41
2021/05/15 03:06:13;;;;;;;4.35;3.80;;;;;;;14.53;68.08;98561.58;1766212;80;21022;-41
2021/05/15 03:08:40;;;;;;;5.85;4.40;;;;;;;14.62;68.06;98570.83;1762795;79;21019;-41
2021/05/15 03:11:07;;;;;;;5.20;3.70;;;;;;;14.68;68.00;98567.86;1769145;80;21051;-41
2021/05/15 03:13:34;;;;;;;4.47;3.70;;;;;;;14.67;68.05;98573.13;1762069;80;21577;-41
2021/05/15 03:16:00;;;;;;;5.33;4.15;;;;;;;14.67;68.16;98577.21;1755916;80;22025;-41
2021/05/15 03:18:27;;;;;;;6.85;4.05;;;;;;;14.63;68.27;98580.57;1765808;80;21154;-41
2021/05/15 03:20:55;;;;;;;4.25;3.70;;;;;;;14.56;68.52;98577.16;1762157;80;21070;-41
2021/05/15 03:23:23;;;;;;;8.23;4.00;;;;;;;14.53;68.81;98584.17;1768896;80;20999;-41
2021/05/15 03:25:54;;;;;;;5.05;4.08;;;;;;;14.57;68.89;98586.89;1764497;80;21051;-41
2021/05/15 03:28:25;;;;;;;5.42;4.10;;;;;;;14.59;69.00;98588.61;1765833;79;21067;-40
2021/05/15 03:30:51;;;;;;;5.15;4.28;;;;;;;14.54;69.13;98591.19;1764224;80;21608;-40
2021/05/15 03:33:18;;;;;;;7.12;5.08;;;;;;;14.52;69.21;98596.88;1764680;80;21002;-40
2021/05/15 03:35:45;;;;;;;6.83;4.67;;;;;;;14.52;69.31;98594.14;1761293;80;21087;-41
2021/05/15 03:38:11;;;;;;;6.12;4.42;;;;;;;14.54;69.34;98601.31;1755713;80;20963;-41
2021/05/15 03:40:39;;;;;;;6.00;4.70;;;;;;;14.57;69.40;98599.91;1754170;80;21090;-41
2021/05/15 03:43:09;;;;;;;6.65;4.60;;;;;;;14.63;69.37;98598.89;1760683;80;26687;-41
2021/05/15 03:45:35;;;;;;;7.08;5.08;;;;;;;14.67;69.37;98605.08;1757835;80;21014;-40
2021/05/15 03:48:02;;;;;;;7.00;4.67;;;;;;;14.69;69.32;98606.83;1759371;80;21061;-41
2021/05/15 03:50:29;;;;;;;5.72;4.60;;;;;;;14.72;69.31;98604.64;1757713;80;21856;-41
2021/05/15 03:52:56;;;;;;;6.08;4.30;;;;;;;14.75;69.29;98610.67;1762290;80;21760;-41
2021/05/15 03:55:23;;;;;;;4.62;4.22;;;;;;;14.49;69.30;98566.30;1699669;83;21072;-41
2021/05/15 03:57:50;;;;;;;5.22;4.20;;;;;;;14.90;69.20;98612.67;1769687;80;21591;-41
2021/05/15 04:00:20;;;;;;;6.78;4.42;;;;;;;14.94;69.12;98614.17;1762173;80;21007;-41
2021/05/15 04:02:48;;;;;;;5.80;4.58;;;;;;;14.96;68.97;98614.53;1761073;80;20917;-41
2021/05/15 04:05:15;;;;;;;4.87;4.33;;;;;;;14.96;69.06;98622.72;1760994;80;21071;-41
2021/05/15 04:07:42;;;;;;;5.22;4.33;;;;;;;14.96;69.03;98617.88;1764463;80;21058;-41
2021/05/15 04:10:10;;;;;;;7.28;4.17;;;;;;;15.02;68.96;98618.38;1704018;82;21633;-41
2021/05/15 04:12:39;;;;;;;7.87;4.05;;;;;;;15.09;68.76;98616.94;1761823;79;21095;-41
2021/05/15 04:15:08;;;;;;;6.20;4.70;;;;;;;15.12;68.72;98616.70;1762693;79;21616;-41
2021/05/15 04:17:35;;;;;;;6.53;4.45;;;;;;;15.16;68.67;98615.48;1763882;79;21130;-41
2021/05/15 04:20:03;;;;;;;5.70;4.35;;;;;;;15.16;68.57;98615.48;1702155;82;21598;-41
2021/05/15 04:22:29;;;;;;;7.58;4.50;;;;;;;15.11;68.76;98618.66;1761549;79;21098;-41
2021/05/15 04:24:58;;;;;;;8.58;4.42;;;;;;;15.12;68.79;98621.58;1759882;79;21651;-41
2021/05/15 04:27:25;;;;;;;7.47;4.55;;;;;;;15.19;68.80;98627.55;1756721;80;21125;-41
2021/05/15 04:29:51;;;;;;;8.18;4.70;;;;;;;15.27;68.76;98629.02;1756258;79;21722;-41
2021/05/15 04:32:18;;;;;;;6.70;5.15;;;;;;;15.34;68.65;98621.34;1767761;79;21390;-41
2021/05/15 04:34:45;;;;;;;5.47;4.90;;;;;;;15.37;68.46;98620.51;1758796;79;20975;-41
2021/05/15 04:37:11;;;;;;;6.45;5.10;;;;;;;15.39;68.44;98631.22;1767817;80;21035;-41
2021/05/15 04:39:38;;;;;;;5.50;4.60;;;;;;;15.37;68.51;98635.53;1753349;80;21007;-41
2021/05/15 04:42:05;;;;;;;6.33;4.90;;;;;;;15.42;68.57;98635.08;1750643;80;21089;-41
2021/05/15 04:44:31;;;;;;;6.55;5.25;;;;;;;15.52;68.30;98637.72;1750928;80;21909;-41
2021/05/15 04:46:58;;;;;;;5.53;4.83;;;;;;;15.57;68.18;98640.59;1752838;80;21675;-41
2021/05/15 04:49:25;;;;;;;7.28;5.50;;;;;;;15.59;68.14;98632.73;1770780;79;21593;-41
2021/05/15 04:51:52;;;;;;;6.60;5.05;;;;;;;15.59;68.10;98638.20;1760879;80;20999;-41
2021/05/15 04:54:19;;;;;;;6.10;5.05;;;;;;;15.60;68.21;98640.53;1751728;80;21135;-41
2021/05/15 04:56:45;;;;;;;5.53;4.22;;;;;;;15.61;68.14;98639.94;1750721;80;21038;-41
2021/05/15 04:59:12;;;;;;;4.65;4.00;;;;;;;15.62;68.18;98645.59;1757921;80;21102;-41
2021/05/15 05:01:40;;;;;;;5.17;4.30;;;;;;;15.70;68.02;98645.67;1763763;80;21118;-41
2021/05/15 05:04:08;;;;;;;5.90;4.37;;;;;;;15.76;68.01;98646.00;1766569;79;21078;-41
2021/05/15 05:06:35;;;;;;;4.97;4.33;;;;;;;15.80;67.91;98654.33;1760822;80;21146;-41
2021/05/15 05:09:03;;;;;;;4.20;3.80;;;;;;;15.83;67.97;98656.23;1756635;80;21652;-41
2021/05/15 05:11:30;;;;;;;4.50;4.10;;;;;;;15.87;67.89;98650.14;1750634;80;20951;-41
2021/05/15 05:13:58;;;;;;;4.78;3.55;;;;;;;15.87;67.72;98658.34;1750385;81;21024;-41
2021/05/15 05:16:25;;;;;;;5.45;3.80;;;;;;;15.89;67.81;98657.32;1765926;80;21039;-41
2021/05/15 05:18:52;;;;;;;4.33;3.15;;;;;;;15.96;67.72;98658.60;1762652;80;21070;-41
2021/05/15 05:21:19;;;;;;;5.20;3.50;;;;;;;15.99;67.45;98663.23;1773195;80;20971;-41
2021/05/15 05:23:46;;;;;;;4.92;3.80;;;;;;;16.00;67.61;98658.55;1755361;80;21051;-41
2021/05/15 05:26:13;;;;;;;3.80;3.50;;;;;;;16.02;67.62;98663.77;1751858;80;21050;-41
2021/05/15 05:28:42;;;;;;;6.08;3.77;;;;;;;16.07;67.85;98660.57;1755171;80;21046;-41
2021/05/15 05:31:10;;;;;;;3.77;3.23;;;;;;;16.13;67.22;98662.84;1750831;80;21679;-41
2021/05/15 05:33:37;;;;;;;4.20;3.30;;;;;;;16.19;67.27;98670.77;1760362;80;21814;-41
2021/05/15 05:36:06;;;;;;;3.85;3.22;;;;;;;16.25;67.15;98665.02;1774131;80;21042;-41
2021/05/15 05:38:34;;;;;;;5.08;3.67;;;;;;;16.29;66.96;98671.20;1756551;80;21383;-41
2021/05/15 05:41:00;;;;;;;4.35;3.70;;;;;;;16.34;67.08;98672.89;1766639;80;21524;-41
2021/05/15 05:43:27;;;;;;;6.22;3.58;;;;;;;16.42;66.62;98665.33;1781645;80;21078;-41
2021/05/15 05:45:54;;;;;;;5.58;3.37;;;;;;;16.46;66.31;98671.52;1781653;80;21015;-41
2021/05/15 05:49:13;;;;;;;3.95;3.55;;;;;;;16.52;66.05;98675.33;1757130;79;22738;-41
2021/05/15 05:51:40;;;;;;;7.35;3.62;;;;;;;16.49;65.67;98681.05;1717669;82;20995;-41
2021/05/15 05:54:06;;;;;;;4.90;3.58;;;;;;;16.50;66.04;98681.83;1712335;82;21089;-41
2021/05/15 05:56:35;;;;;;;5.00;3.67;;;;;;;16.46;65.55;98679.72;1659472;85;21608;-41
2021/05/15 05:59:02;;;;;;;6.12;3.40;;;;;;;16.42;65.80;98683.89;1713136;83;20988;-41
2021/05/15 06:01:29;;;;;;;4.05;3.45;;;;;;;16.41;65.97;98687.80;1706772;83;21598;-41
2021/05/15 06:03:56;;;;;;;4.37;3.90;;;;;;;16.45;65.88;98685.03;1710496;83;20953;-41
2021/05/15 06:06:22;;;;;;;5.42;4.42;;;;;;;16.52;65.92;98681.58;1705461;83;21593;-41
2021/05/15 06:08:51;;;;;;;5.22;4.25;;;;;;;16.56;65.99;98691.09;1710806;83;21048;-41
2021/05/15 06:11:17;;;;;;;6.58;4.35;;;;;;;16.60;65.21;98693.83;1725929;83;21218;-41
2021/05/15 06:13:46;;;;;;;4.83;3.85;;;;;;;16.61;65.13;98693.39;1708111;83;20988;-41
2021/05/15 06:16:13;;;;;;;5.78;3.75;;;;;;;16.62;65.18;98700.42;1710086;83;20972;-41
2021/05/15 06:18:39;;;;;;;3.98;3.55;;;;;;;16.66;65.02;98698.39;1726314;83;21083;-41
2021/05/15 06:21:06;;;;;;;4.85;4.35;;;;;;;16.71;65.01;98697.14;1726496;83;21039;-41
2021/05/15 06:23:33;;;;;;;4.90;4.40;;;;;;;16.76;65.21;98704.87;1723321;83;21110;-41
2021/05/15 06:26:00;;;;;;;5.55;3.90;;;;;;;16.79;64.98;98708.95;1708146;83;21975;-41
2021/05/15 06:28:27;;;;;;;5.78;4.22;;;;;;;16.84;65.10;98708.48;1715177;83;21071;-41
2021/05/15 06:30:53;;;;;;;4.42;3.92;;;;;;;16.90;64.84;98716.38;1706829;83;21078;-41
2021/05/15 06:33:19;;;;;;;4.30;3.87;;;;;;;16.96;65.16;98715.30;1705844;83;21023;-41
2021/05/15 06:35:46;;;;;;;5.12;3.85;;;;;;;17.07;64.84;98717.86;1696716;83;20964;-41
2021/05/15 06:38:13;;;;;;;5.40;3.95;;;;;;;17.11;64.86;98716.61;1716365;83;21111;-41
2021/05/15 06:40:40;;;;;;;4.60;3.90;;;;;;;17.15;64.59;98719.27;1702001;83;21561;-41
2021/05/15 06:43:07;;;;;;;6.20;3.85;;;;;;;17.21;64.53;98723.86;1709848;83;21171;-41
2021/05/15 06:45:34;;;;;;;4.65;4.05;;;;;;;17.27;64.61;98728.27;1716602;83;21011;-41
2021/05/15 06:48:00;;;;;;;4.37;3.98;;;;;;;17.27;63.92;98729.05;1714123;82;20983;-41
2021/05/15 06:50:28;;;;;;;4.72;3.85;;;;;;;17.31;63.80;98726.23;1714137;82;20968;-41
2021/05/15 06:52:54;;;;;;;6.12;4.35;;;;;;;17.38;63.84;98728.23;1713633;82;21078;-41
2021/05/15 06:55:23;;;;;;;5.25;4.40;;;;;;;17.47;63.40;98734.55;1723541;82;21565;-41
2021/05/15 06:57:50;;;;;;;5.70;4.60;;;;;;;17.55;63.17;98738.69;1726778;82;21600;-41
2021/05/15 07:00:18;;;;;;;5.37;4.58;;;;;;;17.63;63.48;98735.23;1707106;82;20949;-41
2021/05/15 07:02:44;;;;;;;5.12;4.42;;;;;;;17.70;62.70;98734.51;1716687;82;21557;-41
2021/05/15 07:05:12;;;;;;;5.70;4.20;;;;;;;17.77;62.75;98731.61;1717350;82;21099;-41
2021/05/15 07:07:39;;;;;;;5.90;4.12;;;;;;;17.87;62.10;98733.19;1718547;82;21047;-41
2021/05/15 07:10:08;;;;;;;4.72;4.33;;;;;;;18.02;62.27;98731.09;1710860;82;20965;-41
2021/05/15 07:12:35;;;;;;;4.90;4.40;;;;;;;18.24;62.68;98732.80;1733982;82;20960;-41
2021/05/15 07:15:01;;;;;;;3.47;3.17;;;;;;;18.46;61.38;98735.82;1727693;82;20987;-41
2021/05/15 07:17:28;;;;;;;3.98;2.90;;;;;;;18.65;60.20;98740.50;1732801;82;21007;-41
2021/05/15 07:19:56;;;;;;;3.87;3.22;;;;;;;18.82;59.15;98737.95;1710710;82;21090;-41
2021/05/15 07:22:24;;;;;;;4.67;3.90;;;;;;;18.97;59.11;98739.74;1692852;82;21071;-41
2021/05/15 07:24:55;;;;;;;4.25;3.85;;;;;;;19.10;58.65;98743.33;1697646;82;21004;-41
2021/05/15 07:27:23;;;;;;;5.50;3.62;;;;;;;19.20;57.97;98742.28;1705213;82;21137;-41
2021/05/15 07:29:52;;;;;;;4.15;3.70;;;;;;;19.23;57.17;98745.53;1718466;82;21011;-41
2021/05/15 07:32:20;;;;;;;3.80;3.35;;;;;;;19.13;57.43;98720.47;1710778;82;21768;-41
2021/05/15 07:34:47;;;;;;;5.15;3.45;;;;;;;19.34;56.83;98742.52;1706605;82;21028;-41
2021/05/15 07:37:14;;;;;;;5.55;2.80;;;;;;;19.46;56.05;98746.70;1663301;85;21015;-41
2021/05/15 07:39:42;;;;;;;2.40;2.20;;;;;;;19.57;54.83;98750.55;1710873;82;20980;-41
2021/05/15 07:42:09;;;;;;;3.60;3.12;;;;;;;19.68;54.41;98748.89;1710023;82;21549;-41
2021/05/15 07:44:36;;;;;;;3.15;2.60;;;;;;;19.81;54.29;98745.56;1732028;82;21117;-41
2021/05/15 07:47:03;;;;;;;3.65;2.50;;;;;;;19.94;54.92;98745.02;1716129;82;20996;-41
2021/05/15 07:49:30;;;;;;;4.58;3.00;;;;;;;20.14;53.40;98744.20;1719107;81;21091;-41
2021/05/15 07:51:57;;;;;;;3.90;2.92;;;;;;;20.27;53.04;98738.73;1720339;82;21003;-41
2021/05/15 07:54:24;;;;;;;2.87;2.62;;;;;;;20.34;53.28;98748.16;1734157;82;21636;-41
2021/05/15 07:56:51;;;;;;;2.90;2.58;;;;;;;20.46;53.70;98737.77;1707439;82;21096;-41
2021/05/15 07:59:17;;;;;;;3.55;2.90;;;;;;;20.53;53.14;98733.41;1711990;82;20988;-41
2021/05/15 08:01:44;;;;;;;4.05;2.67;;;;;;;20.60;52.86;98729.67;1711838;82;20983;-41
2021/05/15 08:04:11;;;;;;;2.67;2.47;;;;;;;20.57;53.08;98740.98;1726251;82;20948;-41
2021/05/15 08:06:37;;;;;;;2.83;2.15;;;;;;;20.52;53.32;98739.38;1715455;82;20972;-41
2021/05/15 08:09:07;;;;;;;4.85;2.72;;;;;;;20.42;52.98;98747.36;1730073;82;21503;-41
2021/05/15 08:11:36;;;;;;;4.45;3.55;;;;;;;20.25;54.37;98749.40;1730774;82;21065;-41
2021/05/15 08:14:05;;;;;;;4.00;3.67;;;;;;;20.05;55.75;98753.71;1725638;82;20959;-41
2021/05/15 08:16:33;;;;;;;4.03;3.08;;;;;;;19.83;56.73;98763.19;1705768;82;21601;-41
2021/05/15 08:19:02;;;;;;;5.05;3.98;;;;;;;19.62;57.58;98763.00;1712215;82;20968;-41
2021/05/15 08:21:29;;;;;;;5.65;4.10;;;;;;;19.40;59.47;98764.92;1712552;82;21053;-41
2021/05/15 08:23:56;;;;;;;7.42;3.80;;;;;;;19.25;59.51;98762.97;1710933;82;20996;-41
2021/05/15 08:26:23;;;;;;;4.75;4.00;;;;;;;19.10;60.33;98765.31;1711071;82;21007;-41
2021/05/15 08:28:52;;;;;;;4.85;4.03;;;;;;;19.01;59.93;98768.67;1728158;82;21888;-41
2021/05/15 08:31:18;;;;;;;5.45;3.83;;;;;;;18.68;60.13;98731.42;1715306;82;21020;-41
2021/05/15 08:33:45;;;;;;;4.42;3.65;;;;;;;18.83;59.51;98762.06;1706238;82;21613;-41
2021/05/15 08:36:12;;;;;;;5.28;3.58;;;;;;;18.74;59.68;98773.63;1707857;82;21613;-41
2021/05/15 08:38:39;;;;;;;5.40;3.33;;;;;;;18.68;60.18;98767.72;1706425;82;21016;-41
2021/05/15 08:41:09;;;;;;;5.35;4.10;;;;;;;18.69;60.63;98767.27;1704996;82;21079;-41
2021/05/15 08:43:42;;;;;;;4.37;3.83;;;;;;;18.76;59.92;98765.74;1713183;82;21730;-41
2021/05/15 08:46:13;;;;;;;3.98;3.58;;;;;;;18.79;59.48;98764.10;1714636;82;21676;-41
2021/05/15 08:48:42;;;;;;;3.20;2.83;;;;;;;18.82;58.30;98764.63;1702855;82;21554;-41
2021/05/15 08:51:11;;;;;;;3.98;2.90;;;;;;;18.88;57.73;98764.30;1705082;82;21036;-41
2021/05/15 08:53:39;;;;;;;;;;;;;;;19.02;57.89;98763.95;1701781;83;21012;-41
2021/05/15 08:56:08;;;;;;;3.33;2.75;;;;;;;19.25;57.42;98769.25;1697811;83;20221;-42
2021/05/15 08:58:38;;;;;;;;;;;;;;;19.37;57.55;98766.37;1710369;82;21031;-41
2021/05/15 09:01:08;;;;;;;3.83;3.40;;;;;;;19.55;56.69;98763.98;1697407;83;20188;-41
2021/05/15 09:03:34;;;;;;;3.75;2.90;;;;;;;19.53;55.70;98770.50;1711947;82;21461;-40
2021/05/15 09:06:03;;;;;;;2.50;2.30;;;;;;;19.53;55.68;98770.50;1706548;82;21683;-40
2021/05/15 09:08:30;;;;;;;5.12;2.80;;;;;;;19.51;55.22;98766.03;1713692;82;21081;-40
2021/05/15 09:10:57;;;;;;;2.27;2.08;;;;;;;19.55;55.33;98768.70;1705145;82;21175;-40
2021/05/15 09:13:27;;;;;;;3.25;2.80;;;;;;;19.68;54.81;98769.52;1699736;83;21047;-40
2021/05/15 09:16:02;;;;;;;4.45;2.60;;;;;;;19.82;54.06;98770.50;1706903;83;21422;-40
2021/05/15 09:18:36;;;;;;;3.72;2.35;;;;;;;19.95;53.79;98770.70;1697329;83;20996;-41
2021/05/15 09:21:05;;;;;;;4.12;2.50;;;;;;;20.09;52.12;98767.39;1708347;83;21392;-40
2021/05/15 09:23:34;;;;;;;9.23;2.33;;;;;;;20.25;51.83;98768.66;1698121;83;21481;-40
2021/05/15 09:26:08;;;;;;;2.67;2.40;;;;;;;20.37;52.00;98767.35;1697931;83;28587;-41
2021/05/15 09:28:51;;;;;;;4.58;2.45;;;;;;;20.49;52.41;98773.28;1706227;83;21610;-41
2021/05/15 09:31:29;;;;;;;3.20;2.10;;;;;;;20.59;51.72;98770.81;1697359;83;21064;-41
2021/05/15 09:34:04;;;;;;;2.22;2.00;;;;;;;20.64;50.36;98760.02;1719159;83;21043;-41
2021/05/15 09:36:35;;;;;;;2.35;1.72;;;;;;;20.66;50.40;98762.34;1709135;83;21010;-40
2021/05/15 09:39:13;;;;;;;;;;;;;;;20.63;50.77;98765.95;1699725;84;21040;-41
2021/05/15 09:41:55;;;;;;;1.20;1.10;;;;;;;20.62;49.59;98767.19;1702922;83;20214;-41
2021/05/15 09:44:29;;;;;;;2.02;1.70;;;;;;;20.49;49.06;98770.53;1698428;83;20996;-41
2021/05/15 09:46:57;;;;;;;2.75;1.62;;;;;;;20.50;49.68;98766.57;1700041;83;21035;-41
2021/05/15 09:49:27;;;;;;;2.33;1.80;;;;;;;20.64;50.62;98762.77;1696893;84;21754;-40
2021/05/15 09:51:58;;;;;;;1.87;1.77;;;;;;;20.88;49.28;98758.28;1701766;83;26511;-41
2021/05/15 09:54:28;;;;;;;3.80;1.82;;;;;;;21.05;49.12;98761.86;1725268;81;20943;-41
2021/05/15 09:57:03;;;;;;;1.60;1.50;;;;;;;21.07;48.11;98760.78;1705370;83;21178;-41
2021/05/15 09:59:32;;;;;;;1.70;1.60;;;;;;;21.01;47.30;98775.59;1711139;83;21132;-41
2021/05/15 10:02:05;;;;;;;2.62;1.40;;;;;;;21.04;47.97;98775.47;1702092;83;21071;-41
2021/05/15 10:04:33;;;;;;;1.57;1.40;;;;;;;21.22;47.36;98774.90;1697159;83;21539;-41
2021/05/15 10:07:01;;;;;;;1.60;1.50;;;;;;;21.34;46.24;98785.14;1699132;83;21585;-41
2021/05/15 10:09:35;;;;;;;2.60;1.82;;;;;;;21.30;46.30;98780.96;1701061;83;21007;-41
2021/05/15 10:12:05;;;;;;;4.47;1.98;;;;;;;21.15;47.07;98786.95;1698842;83;21691;-41
2021/05/15 10:14:34;;;;;;;6.28;1.72;;;;;;;20.94;48.67;98794.49;1718922;83;21562;-41
2021/05/15 10:17:02;;;;;;;2.20;1.40;;;;;;;20.72;49.41;98801.91;1721044;83;21633;-41
2021/05/15 10:19:29;;;;;;;1.60;1.30;;;;;;;20.49;48.71;98804.34;1699234;83;21541;-41
2021/05/15 10:21:57;;;;;;;3.75;1.60;;;;;;;20.29;49.60;98801.75;1680106;83;21652;-41
2021/05/15 10:24:29;;;;;;;1.42;1.32;;;;;;;20.13;50.49;98799.10;1697419;83;20988;-41
2021/05/15 10:27:07;;;;;;;1.60;1.32;;;;;;;20.04;50.10;98798.20;1697642;83;21746;-41
2021/05/15 10:29:51;;;;;;;1.87;1.37;;;;;;;19.94;50.70;98800.05;1611632;85;21069;-41
2021/05/15 10:32:33;;;;;;;2.22;1.52;;;;;;;19.90;51.71;98804.84;1653331;85;21072;-41
2021/05/15 10:35:03;;;;;;;2.15;1.80;;;;;;;19.83;52.39;98809.95;1696205;83;21640;-41
2021/05/15 10:37:38;;;;;;;3.95;1.50;;;;;;;19.70;54.00;98815.25;1692855;83;21048;-41
2021/05/15 10:40:17;;;;;;;2.00;1.80;;;;;;;19.53;54.89;98804.27;1678539;83;21117;-41
2021/05/15 10:42:58;;;;;;;2.08;1.70;;;;;;;19.40;55.70;98806.16;1707527;83;21107;-41
2021/05/15 10:45:36;;;;;;;4.35;1.95;;;;;;;19.24;56.67;98807.55;1704349;82;21099;-41
2021/05/15 10:48:22;;;;;;;2.00;1.65;;;;;;;19.13;57.59;98805.65;1698093;83;20996;-41
2021/05/15 10:51:00;;;;;;;3.60;1.90;;;;;;;19.00;57.24;98805.58;1707182;82;21591;-41
2021/05/15 10:53:33;;;;;;;2.33;1.80;;;;;;;18.89;57.66;98808.39;1712813;82;21012;-41
2021/05/15 10:56:17;;;;;;;1.65;1.55;;;;;;;18.81;57.77;98802.91;1705136;82;20956;-40
2021/05/15 10:58:50;;;;;;;3.02;1.65;;;;;;;18.77;58.15;98796.73;1713776;82;21107;-41
2021/05/15 11:01:21;;;;;;;1.60;1.50;;;;;;;18.76;58.86;98795.95;1724647;82;21597;-40
2021/05/15 11:03:49;;;;;;;2.35;1.50;;;;;;;18.89;58.90;98793.28;1720468;82;21055;-41
2021/05/15 11:06:24;;;;;;;2.25;1.65;;;;;;;19.09;58.41;98796.73;1707535;82;21142;-41
2021/05/15 11:09:00;;;;;;;3.62;1.90;;;;;;;19.23;57.70;98788.13;1716306;82;21008;-41
2021/05/15 11:11:42;;;;;;;1.87;1.60;;;;;;;19.34;56.99;98793.36;1706059;82;21008;-40
2021/05/15 11:14:39;;;;;;;3.20;1.70;;;;;;;19.42;57.15;98794.71;1720950;82;20968;-41
2021/05/15 11:17:26;;;;;;;1.72;1.45;;;;;;;19.50;57.52;98783.75;1706069;82;21063;-41
2021/05/15 11:20:04;;;;;;;1.98;1.50;;;;;;;19.69;56.63;98785.59;1706105;82;21617;-40
2021/05/15 11:22:50;;;;;;;4.00;1.50;;;;;;;19.91;56.19;98785.16;1705052;82;21536;-41
2021/05/15 11:25:26;;;;;;;2.25;1.70;;;;;;;20.12;55.47;98783.79;1705776;82;20988;-41
2021/05/15 11:28:01;;;;;;;1.47;1.30;;;;;;;20.32;53.58;98783.64;1705709;82;21574;-41
2021/05/15 11:30:43;;;;;;;2.35;1.50;;;;;;;20.45;53.18;98787.16;1706554;82;21107;-41
2021/05/15 11:33:16;;;;;;;2.47;1.50;;;;;;;20.58;53.16;98785.78;1708996;82;22224;-40
2021/05/15 11:35:57;;;;;;;1.92;1.25;;;;;;;20.75;52.78;98777.59;1713202;82;21020;-40
2021/05/15 11:38:28;;;;;;;1.62;1.40;;;;;;;20.96;52.21;98783.78;1711083;82;21060;-41
2021/05/15 11:40:57;;;;;;;4.47;1.50;;;;;;;21.17;51.09;98776.23;1722596;82;21027;-41
2021/05/15 11:43:39;;;;;;;1.77;1.45;;;;;;;21.34;50.41;98781.00;1719889;82;21030;-41